createdAt,value
2018-06-02T00:00:23.188Z,20.46
2018-06-02T00:01:04.561Z,20.5
2018-06-02T00:01:45.126Z,20.5
2018-06-02T00:02:25.534Z,20.54
2018-06-02T00:03:05.918Z,20.44
2018-06-02T00:03:46.863Z,20.46
2018-06-02T00:04:27.319Z,20.46
2018-06-02T00:05:07.657Z,20.48
2018-06-02T00:05:48.554Z,20.42
2018-06-02T00:06:28.740Z,20.4
2018-06-02T00:07:09.129Z,20.5
2018-06-02T00:07:49.488Z,20.46
2018-06-02T00:08:30.221Z,20.37
2018-06-02T00:09:10.656Z,20.4
2018-06-02T00:09:51.149Z,20.37
2018-06-02T00:10:32.198Z,20.41
2018-06-02T00:11:13.323Z,20.37
2018-06-02T00:11:53.376Z,20.38
2018-06-02T00:12:34.226Z,20.46
2018-06-02T00:13:16.265Z,20.33
2018-06-02T00:13:56.699Z,20.3
2018-06-02T00:14:37.599Z,20.33
2018-06-02T00:15:19.618Z,20.3
2018-06-02T00:16:00.454Z,20.26
2018-06-02T00:16:40.840Z,20.26
2018-06-02T00:17:21.329Z,20.26
2018-06-02T00:18:01.731Z,20.34
2018-06-02T00:18:42.497Z,20.3
2018-06-02T00:19:22.967Z,20.27
2018-06-02T00:20:05.401Z,20.31
2018-06-02T00:20:45.760Z,20.38
2018-06-02T00:21:26.112Z,20.46
2018-06-02T00:22:06.539Z,20.5
2018-06-02T00:22:46.963Z,20.46
2018-06-02T00:23:27.242Z,20.51
2018-06-02T00:24:08.098Z,20.38
2018-06-02T00:24:49.270Z,20.38
2018-06-02T00:25:31.900Z,20.35
2018-06-02T00:26:12.471Z,20.4
2018-06-02T00:26:52.847Z,20.42
2018-06-02T00:27:33.374Z,20.4
2018-06-02T00:28:13.946Z,20.46
2018-06-02T00:28:54.321Z,20.42
2018-06-02T00:29:34.756Z,20.46
2018-06-02T00:30:16.227Z,20.5
2018-06-02T00:30:56.627Z,20.38
2018-06-02T00:31:37.101Z,20.44
2018-06-02T00:32:17.510Z,20.38
2018-06-02T00:32:58.036Z,20.42
2018-06-02T00:33:38.400Z,20.4
2018-06-02T00:34:25.875Z,20.33
2018-06-02T00:35:06.122Z,20.3
2018-06-02T00:35:47.598Z,20.4
2018-06-02T00:36:27.839Z,20.42
2018-06-02T00:37:08.342Z,20.37
2018-06-02T00:37:48.754Z,20.44
2018-06-02T00:38:36.937Z,20.38
2018-06-02T00:39:20.033Z,20.48
2018-06-02T00:39:59.988Z,20.44
2018-06-02T00:40:40.424Z,20.42
2018-06-02T00:41:20.932Z,20.48
2018-06-02T00:42:02.382Z,20.44
2018-06-02T00:42:42.860Z,20.53
2018-06-02T00:43:23.561Z,20.54
2018-06-02T00:44:05.976Z,20.56
2018-06-02T00:44:46.657Z,20.5
2018-06-02T00:45:27.098Z,20.56
2018-06-02T00:46:07.571Z,20.48
2018-06-02T00:46:48.123Z,20.53
2018-06-02T00:47:29.592Z,20.58
2018-06-02T00:48:10.146Z,20.73
2018-06-02T00:48:50.526Z,20.61
2018-06-02T00:49:30.955Z,20.61
2018-06-02T00:50:11.396Z,20.58
2018-06-02T00:50:53.238Z,20.69
2018-06-02T00:51:33.102Z,20.64
2018-06-02T00:52:13.540Z,20.63
2018-06-02T00:52:54.187Z,20.63
2018-06-02T00:53:35.004Z,20.66
2018-06-02T00:54:15.400Z,20.69
2018-06-02T00:54:55.799Z,20.66
2018-06-02T00:55:36.156Z,20.64
2018-06-02T00:56:16.539Z,20.63
2018-06-02T00:57:02.011Z,20.69
2018-06-02T00:57:42.729Z,20.69
2018-06-02T00:58:23.032Z,20.64
2018-06-02T00:59:03.432Z,20.58
2018-06-02T00:59:43.973Z,20.61
2018-06-02T01:00:24.420Z,20.64
2018-06-02T01:01:04.910Z,20.66
2018-06-02T01:01:45.348Z,20.58
2018-06-02T01:02:25.988Z,20.64
2018-06-02T01:03:07.384Z,20.64
2018-06-02T01:03:48.577Z,20.61
2018-06-02T01:04:28.929Z,20.68
2018-06-02T01:05:11.860Z,20.68
2018-06-02T01:05:52.790Z,20.69
2018-06-02T01:06:33.543Z,20.66
2018-06-02T01:07:13.981Z,20.69
2018-06-02T01:07:54.666Z,20.66
2018-06-02T01:08:34.937Z,20.61
2018-06-02T01:09:15.380Z,20.61
2018-06-02T01:09:55.809Z,20.61
2018-06-02T01:10:36.593Z,20.6
2018-06-02T01:11:17.545Z,20.58
2018-06-02T01:11:58.002Z,20.66
2018-06-02T01:12:38.442Z,20.69
2018-06-02T01:13:18.954Z,20.61
2018-06-02T01:13:59.319Z,20.69
2018-06-02T01:14:40.479Z,20.6
2018-06-02T01:15:21.157Z,20.69
2018-06-02T01:16:01.618Z,20.69
2018-06-02T01:16:41.939Z,20.63
2018-06-02T01:17:22.633Z,20.61
2018-06-02T01:18:03.091Z,20.63
2018-06-02T01:18:43.681Z,20.64
2018-06-02T01:19:24.171Z,20.61
2018-06-02T01:20:05.351Z,20.66
2018-06-02T01:20:45.772Z,20.63
2018-06-02T01:21:26.598Z,20.61
2018-06-02T01:22:06.888Z,20.71
2018-06-02T01:22:47.246Z,20.61
2018-06-02T01:23:27.880Z,20.6
2018-06-02T01:24:08.391Z,20.64
2018-06-02T01:24:49.018Z,20.61
2018-06-02T01:25:29.891Z,20.51
2018-06-02T01:26:10.142Z,20.44
2018-06-02T01:26:50.584Z,20.56
2018-06-02T01:27:31.010Z,20.61
2018-06-02T01:28:11.388Z,20.56
2018-06-02T01:28:51.907Z,20.51
2018-06-02T01:29:32.267Z,20.56
2018-06-02T01:30:14.253Z,20.48
2018-06-02T01:30:55.588Z,20.54
2018-06-02T01:31:35.993Z,20.48
2018-06-02T01:32:16.393Z,20.51
2018-06-02T01:32:56.830Z,20.51
2018-06-02T01:33:37.182Z,20.46
2018-06-02T01:34:17.605Z,20.48
2018-06-02T01:34:57.996Z,20.51
2018-06-02T01:35:38.378Z,20.53
2018-06-02T01:36:18.778Z,20.5
2018-06-02T01:36:59.197Z,20.51
2018-06-02T01:37:39.610Z,20.51
2018-06-02T01:38:20.021Z,20.56
2018-06-02T01:39:00.568Z,20.56
2018-06-02T01:39:43.759Z,20.54
2018-06-02T01:40:24.184Z,20.51
2018-06-02T01:41:04.591Z,20.41
2018-06-02T01:41:45.008Z,20.44
2018-06-02T01:42:25.336Z,20.5
2018-06-02T01:43:05.905Z,20.42
2018-06-02T01:43:46.361Z,20.41
2018-06-02T01:44:26.773Z,20.46
2018-06-02T01:45:07.196Z,20.41
2018-06-02T01:45:47.573Z,20.51
2018-06-02T01:46:27.966Z,20.41
2018-06-02T01:47:08.492Z,20.38
2018-06-02T01:47:48.886Z,20.31
2018-06-02T01:48:29.260Z,20.31
2018-06-02T01:49:09.667Z,20.31
2018-06-02T01:49:50.052Z,20.27
2018-06-02T01:50:30.469Z,20.26
2018-06-02T01:51:10.972Z,20.31
2018-06-02T01:51:51.282Z,20.35
2018-06-02T01:52:31.771Z,20.31
2018-06-02T01:53:12.163Z,20.27
2018-06-02T01:53:52.679Z,20.33
2018-06-02T01:54:33.189Z,20.33
2018-06-02T01:55:13.581Z,20.27
2018-06-02T01:55:53.968Z,20.31
2018-06-02T01:56:34.653Z,20.4
2018-06-02T01:57:15.124Z,20.38
2018-06-02T01:57:55.573Z,20.26
2018-06-02T01:58:36.134Z,20.3
2018-06-02T01:59:16.506Z,20.31
2018-06-02T01:59:56.931Z,20.37
2018-06-02T02:00:37.281Z,20.31
2018-06-02T02:01:17.767Z,20.33
2018-06-02T02:01:58.129Z,20.13
2018-06-02T02:02:38.503Z,20.27
2018-06-02T02:03:18.888Z,20.26
2018-06-02T02:03:59.364Z,20.27
2018-06-02T02:04:42.409Z,20.26
2018-06-02T02:05:23.106Z,20.37
2018-06-02T02:06:03.871Z,20.33
2018-06-02T02:06:44.283Z,20.35
2018-06-02T02:07:24.653Z,20.38
2018-06-02T02:08:05.097Z,20.33
2018-06-02T02:08:45.706Z,20.26
2018-06-02T02:09:26.098Z,20.4
2018-06-02T02:10:06.468Z,20.44
2018-06-02T02:10:46.864Z,20.38
2018-06-02T02:11:27.296Z,20.37
2018-06-02T02:12:07.743Z,20.46
2018-06-02T02:12:48.208Z,20.38
2018-06-02T02:13:28.495Z,20.41
2018-06-02T02:14:08.919Z,20.41
2018-06-02T02:14:50.220Z,20.42
2018-06-02T02:15:30.688Z,20.42
2018-06-02T02:16:11.077Z,20.42
2018-06-02T02:16:51.528Z,20.42
2018-06-02T02:17:31.887Z,20.46
2018-06-02T02:18:12.400Z,20.41
2018-06-02T02:18:52.794Z,20.46
2018-06-02T02:19:33.316Z,20.42
2018-06-02T02:20:13.749Z,20.4
2018-06-02T02:20:54.124Z,20.44
2018-06-02T02:21:34.479Z,20.34
2018-06-02T02:22:14.956Z,20.41
2018-06-02T02:22:55.310Z,20.41
2018-06-02T02:23:35.729Z,20.41
2018-06-02T02:24:16.084Z,20.46
2018-06-02T02:24:56.594Z,20.44
2018-06-02T02:25:36.974Z,20.38
2018-06-02T02:26:17.389Z,20.5
2018-06-02T02:26:57.749Z,20.44
2018-06-02T02:27:38.217Z,20.4
2018-06-02T02:28:18.632Z,20.4
2018-06-02T02:28:59.095Z,20.42
2018-06-02T02:29:39.544Z,20.42
2018-06-02T02:30:19.975Z,20.4
2018-06-02T02:31:00.387Z,20.4
2018-06-02T02:31:40.853Z,20.4
2018-06-02T02:32:21.230Z,20.38
2018-06-02T02:33:01.634Z,20.41
2018-06-02T02:33:42.001Z,20.4
2018-06-02T02:34:22.402Z,20.41
2018-06-02T02:35:02.792Z,20.44
2018-06-02T02:35:43.249Z,20.42
2018-06-02T02:36:23.600Z,20.42
2018-06-02T02:37:04.014Z,20.37
2018-06-02T02:37:44.402Z,20.44
2018-06-02T02:38:24.826Z,20.44
2018-06-02T02:39:05.293Z,20.48
2018-06-02T02:39:45.716Z,20.44
2018-06-02T02:40:26.097Z,20.42
2018-06-02T02:41:06.447Z,20.46
2018-06-02T02:41:46.879Z,20.42
2018-06-02T02:42:27.320Z,20.31
2018-06-02T02:43:07.681Z,20.44
2018-06-02T02:43:48.039Z,20.4
2018-06-02T02:44:28.475Z,20.38
2018-06-02T02:45:08.886Z,20.42
2018-06-02T02:45:50.088Z,20.4
2018-06-02T02:46:29.705Z,20.42
2018-06-02T02:47:10.129Z,20.4
2018-06-02T02:47:50.577Z,20.46
2018-06-02T02:48:30.916Z,20.5
2018-06-02T02:49:11.351Z,20.46
2018-06-02T02:49:51.731Z,20.44
2018-06-02T02:50:32.148Z,20.5
2018-06-02T02:51:12.581Z,20.41
2018-06-02T02:51:52.954Z,20.35
2018-06-02T02:52:33.371Z,20.5
2018-06-02T02:53:13.787Z,20.53
2018-06-02T02:53:54.193Z,20.5
2018-06-02T02:54:34.612Z,20.46
2018-06-02T02:55:15.042Z,20.44
2018-06-02T02:55:55.370Z,20.44
2018-06-02T02:56:35.791Z,20.46
2018-06-02T02:57:16.220Z,20.42
2018-06-02T02:57:57.094Z,20.31
2018-06-02T02:58:36.999Z,20.31
2018-06-02T02:59:17.370Z,20.3
2018-06-02T02:59:57.761Z,20.22
2018-06-02T03:00:38.186Z,20.23
2018-06-02T03:01:18.591Z,20.2
2018-06-02T03:01:59.018Z,20.25
2018-06-02T03:02:39.356Z,20.25
2018-06-02T03:03:19.800Z,20.2
2018-06-02T03:04:00.250Z,20.15
2018-06-02T03:04:40.633Z,20.19
2018-06-02T03:05:21.059Z,20.1
2018-06-02T03:06:01.417Z,20.13
2018-06-02T03:06:41.849Z,20.12
2018-06-02T03:07:22.265Z,20.08
2018-06-02T03:08:02.622Z,20.1
2018-06-02T03:08:43.034Z,20.1
2018-06-02T03:09:23.423Z,20.15
2018-06-02T03:10:03.810Z,20.12
2018-06-02T03:10:44.239Z,20.2
2018-06-02T03:11:24.655Z,20.15
2018-06-02T03:12:05.061Z,20.13
2018-06-02T03:12:45.493Z,20.12
2018-06-02T03:13:25.875Z,20.19
2018-06-02T03:14:06.316Z,20.13
2018-06-02T03:14:46.743Z,20.16
2018-06-02T03:15:27.141Z,20.16
2018-06-02T03:16:07.574Z,20.15
2018-06-02T03:16:47.897Z,20.15
2018-06-02T03:17:28.360Z,20.19
2018-06-02T03:18:08.728Z,20.12
2018-06-02T03:18:49.112Z,20.13
2018-06-02T03:19:29.557Z,20.13
2018-06-02T03:20:10.015Z,20.07
2018-06-02T03:20:50.442Z,20.02
2018-06-02T03:21:30.805Z,20.04
2018-06-02T03:22:11.242Z,20.1
2018-06-02T03:22:51.608Z,20.04
2018-06-02T03:23:32.015Z,20.05
2018-06-02T03:24:12.436Z,20.08
2018-06-02T03:24:52.857Z,20.07
2018-06-02T03:25:33.226Z,20
2018-06-02T03:26:13.695Z,20.08
2018-06-02T03:26:54.010Z,20.08
2018-06-02T03:27:34.471Z,20.05
2018-06-02T03:28:14.866Z,20.1
2018-06-02T03:28:55.238Z,20.04
2018-06-02T03:29:35.656Z,20.07
2018-06-02T03:30:16.083Z,20.04
2018-06-02T03:30:56.504Z,19.94
2018-06-02T03:31:36.885Z,20
2018-06-02T03:32:17.316Z,20.05
2018-06-02T03:32:57.739Z,20.05
2018-06-02T03:33:38.263Z,20.02
2018-06-02T03:34:18.627Z,19.94
2018-06-02T03:34:59.031Z,19.98
2018-06-02T03:35:40.107Z,19.98
2018-06-02T03:36:21.315Z,19.89
2018-06-02T03:37:04.410Z,20.02
2018-06-02T03:37:46.338Z,19.89
2018-06-02T03:38:29.219Z,19.94
2018-06-02T03:39:10.130Z,19.9
2018-06-02T03:39:58.353Z,19.94
2018-06-02T03:40:39.848Z,19.86
2018-06-02T03:41:20.472Z,19.9
2018-06-02T03:42:03.972Z,19.8
2018-06-02T03:43:43.155Z,19.78
2018-06-02T03:44:23.340Z,19.76
2018-06-02T03:45:03.736Z,19.76
2018-06-02T03:45:44.139Z,19.78
2018-06-02T03:46:24.508Z,19.82
2018-06-02T03:47:04.940Z,19.83
2018-06-02T03:47:45.330Z,19.78
2018-06-02T03:48:25.692Z,19.8
2018-06-02T03:49:06.103Z,19.82
2018-06-02T03:49:46.600Z,19.75
2018-06-02T03:50:26.935Z,19.82
2018-06-02T03:51:07.317Z,19.68
2018-06-02T03:51:47.680Z,19.82
2018-06-02T03:52:28.130Z,19.85
2018-06-02T03:53:08.569Z,19.72
2018-06-02T03:53:48.897Z,19.8
2018-06-02T03:54:29.337Z,19.8
2018-06-02T03:55:09.726Z,19.79
2018-06-02T03:55:50.130Z,19.79
2018-06-02T03:56:30.512Z,19.8
2018-06-02T03:57:10.959Z,19.79
2018-06-02T03:57:51.332Z,19.78
2018-06-02T03:58:31.749Z,19.75
2018-06-02T03:59:12.143Z,19.72
2018-06-02T03:59:52.554Z,19.78
2018-06-02T04:00:32.923Z,19.82
2018-06-02T04:01:13.323Z,19.86
2018-06-02T04:01:53.771Z,19.78
2018-06-02T04:02:34.157Z,19.71
2018-06-02T04:53:00.398Z,19.02
2018-06-02T04:53:40.794Z,19.01
2018-06-02T04:54:21.168Z,19.07
2018-06-02T04:55:01.675Z,18.96
2018-06-02T04:55:42.072Z,19.01
2018-06-02T04:56:22.529Z,19.06
2018-06-02T04:57:02.993Z,19.07
2018-06-02T04:57:43.429Z,19.06
2018-06-02T04:58:25.216Z,19.05
2018-06-02T05:04:09.643Z,19.47
2018-06-02T05:04:51.518Z,19.42
2018-06-02T05:05:31.871Z,19.55
2018-06-02T05:06:12.769Z,19.5
2018-06-02T05:06:56.004Z,19.53
2018-06-02T05:07:37.260Z,19.6
2018-06-02T05:08:24.745Z,19.61
2018-06-02T05:09:05.073Z,19.68
2018-06-02T05:09:45.420Z,19.64
2018-06-02T05:10:25.835Z,19.78
2018-06-02T05:11:07.927Z,19.76
2018-06-02T05:11:48.044Z,19.76
2018-06-02T05:12:29.589Z,19.75
2018-06-02T05:13:10.066Z,19.92
2018-06-02T05:17:33.867Z,20.15
2018-06-02T05:19:35.947Z,20.23
2018-06-02T05:20:30.685Z,20.22
2018-06-02T05:21:13.530Z,20.26
2018-06-02T05:22:03.805Z,20.33
2018-06-02T05:23:44.763Z,20.27
2018-06-02T05:24:27.744Z,20.41
2018-06-02T05:25:07.914Z,20.35
2018-06-02T05:30:35.347Z,20.42
2018-06-02T05:31:17.041Z,20.44
2018-06-02T05:31:59.424Z,20.42
2018-06-02T05:58:02.239Z,20.63
2018-06-02T05:59:48.987Z,20.68
2018-06-02T06:00:38.606Z,20.63
2018-06-02T06:06:01.845Z,20.64
2018-06-02T06:09:36.287Z,20.76
2018-06-02T06:10:20.449Z,20.75
2018-06-02T06:11:02.918Z,20.81
2018-06-02T06:11:43.363Z,20.81
2018-06-02T06:12:23.841Z,20.78
2018-06-02T06:13:07.068Z,20.78
2018-06-02T06:14:46.250Z,20.83
2018-06-02T06:15:34.091Z,20.83
2018-06-02T06:16:15.855Z,20.83
2018-06-02T06:16:56.272Z,20.78
2018-06-02T06:17:38.065Z,20.9
2018-06-02T06:18:18.407Z,20.87
2018-06-02T06:18:59.609Z,20.87
2018-06-02T06:19:40.570Z,20.94
2018-06-02T06:20:21.012Z,20.98
2018-06-02T06:21:01.559Z,20.98
2018-06-02T06:21:42.803Z,21.01
2018-06-02T06:22:23.259Z,21.01
2018-06-02T06:23:03.660Z,21.01
2018-06-02T06:23:44.969Z,21.03
2018-06-02T06:24:26.507Z,21.05
2018-06-02T06:25:06.837Z,21.06
2018-06-02T06:25:47.472Z,21
2018-06-02T06:26:28.823Z,21.01
2018-06-02T06:27:10.173Z,21.01
2018-06-02T06:27:57.115Z,20.97
2018-06-02T06:28:38.241Z,21.05
2018-06-02T06:29:18.221Z,21.12
2018-06-02T06:29:58.858Z,21.05
2018-06-02T06:30:40.050Z,21.13
2018-06-02T06:31:20.761Z,21.12
2018-06-02T06:32:01.242Z,21.15
2018-06-02T06:32:41.683Z,21.21
2018-06-02T06:33:23.115Z,21.15
2018-06-02T06:34:03.447Z,21.19
2018-06-02T06:34:44.445Z,21.21
2018-06-02T06:35:25.280Z,21.22
2018-06-02T06:36:05.291Z,21.22
2018-06-02T06:36:45.640Z,21.22
2018-06-02T06:37:26.093Z,21.3
2018-06-02T06:38:07.419Z,21.28
2018-06-02T06:38:46.951Z,21.31
2018-06-02T06:39:34.455Z,21.33
2018-06-02T06:40:14.752Z,21.4
2018-06-02T06:43:31.787Z,21.34
2018-06-02T06:44:12.256Z,21.37
2018-06-02T06:44:52.751Z,21.38
2018-06-02T06:45:33.184Z,21.4
2018-06-02T06:46:13.546Z,21.48
2018-06-02T06:46:54.940Z,21.38
2018-06-02T06:47:35.808Z,21.3
2018-06-02T06:48:15.986Z,21.27
2018-06-02T06:48:56.432Z,21.28
2018-06-02T06:49:36.884Z,21.33
2018-06-02T06:50:17.231Z,21.38
2018-06-02T06:50:57.741Z,21.33
2018-06-02T06:51:38.418Z,21.36
2018-06-02T06:52:18.804Z,21.34
2018-06-02T06:52:59.269Z,21.37
2018-06-02T06:53:39.617Z,21.33
2018-06-02T06:54:20.120Z,21.43
2018-06-02T06:55:02.593Z,21.3
2018-06-02T06:55:42.145Z,21.4
2018-06-02T06:56:23.068Z,21.36
2018-06-02T06:57:03.485Z,21.4
2018-06-02T06:57:45.466Z,21.37
2018-06-02T06:58:25.800Z,21.42
2018-06-02T06:59:06.233Z,21.45
2018-06-02T06:59:46.679Z,21.48
2018-06-02T07:00:27.158Z,21.3
2018-06-02T07:01:07.905Z,21.38
2018-06-02T07:01:48.090Z,21.43
2018-06-02T07:02:29.072Z,21.46
2018-06-02T07:03:09.428Z,21.55
2018-06-02T07:03:50.262Z,21.59
2018-06-02T07:04:30.918Z,21.59
2018-06-02T07:05:11.181Z,21.59
2018-06-02T07:05:51.687Z,21.64
2018-06-02T07:06:33.655Z,21.55
2018-06-02T07:07:14.027Z,21.68
2018-06-02T07:07:55.270Z,21.64
2018-06-02T07:08:35.740Z,21.66
2018-06-02T07:09:16.269Z,21.77
2018-06-02T07:09:56.547Z,21.7
2018-06-02T07:10:37.253Z,21.66
2018-06-02T07:11:17.754Z,21.7
2018-06-02T07:11:58.268Z,21.73
2018-06-02T07:12:38.947Z,21.74
2018-06-02T07:13:19.878Z,21.64
2018-06-02T07:14:00.459Z,21.7
2018-06-02T07:14:40.888Z,21.66
2018-06-02T07:15:21.413Z,21.66
2018-06-02T07:16:01.843Z,21.7
2018-06-02T07:16:42.956Z,21.59
2018-06-02T07:17:23.371Z,21.63
2018-06-02T07:18:04.890Z,21.55
2018-06-02T07:18:45.382Z,21.51
2018-06-02T07:19:25.808Z,21.52
2018-06-02T07:20:06.326Z,21.48
2018-06-02T07:20:47.674Z,21.56
2018-06-02T07:21:28.461Z,21.61
2018-06-02T07:22:08.858Z,21.48
2018-06-02T07:22:49.321Z,21.45
2018-06-02T07:23:29.753Z,21.48
2018-06-02T07:24:10.128Z,21.52
2018-06-02T07:24:50.747Z,21.58
2018-06-02T07:25:30.978Z,21.59
2018-06-02T07:26:11.543Z,21.59
2018-06-02T07:26:51.843Z,21.64
2018-06-02T07:27:32.481Z,21.7
2018-06-02T07:28:13.035Z,21.77
2018-06-02T07:28:53.475Z,21.89
2018-06-02T07:29:33.949Z,22.06
2018-06-02T07:30:14.326Z,22.11
2018-06-02T07:30:54.723Z,22.05
2018-06-02T07:31:35.105Z,22.36
2018-06-02T07:32:15.491Z,22.45
2018-06-02T07:32:55.976Z,22.41
2018-06-02T07:33:36.503Z,22.49
2018-06-02T07:34:16.841Z,22.44
2018-06-02T07:34:57.329Z,22.63
2018-06-02T07:35:37.672Z,22.63
2018-06-02T07:36:18.200Z,22.63
2018-06-02T07:36:58.512Z,22.61
2018-06-02T07:37:39.145Z,22.63
2018-06-02T07:38:19.561Z,22.56
2018-06-02T07:39:00.007Z,22.59
2018-06-02T07:39:40.439Z,22.56
2018-06-02T07:40:20.997Z,22.51
2018-06-02T07:41:01.449Z,22.51
2018-06-02T07:41:41.814Z,22.51
2018-06-02T07:42:22.338Z,22.46
2018-06-02T07:43:02.862Z,22.46
2018-06-02T07:43:43.320Z,22.54
2018-06-02T07:44:23.843Z,22.51
2018-06-02T07:45:04.107Z,22.54
2018-06-02T07:45:44.499Z,22.6
2018-06-02T07:46:24.934Z,22.63
2018-06-02T07:47:05.413Z,22.66
2018-06-02T07:47:45.765Z,22.66
2018-06-02T07:48:26.210Z,22.72
2018-06-02T07:49:06.570Z,22.64
2018-06-02T07:49:47.141Z,22.64
2018-06-02T07:50:27.497Z,22.66
2018-06-02T07:51:07.902Z,22.56
2018-06-02T07:51:48.259Z,22.67
2018-06-02T07:52:28.766Z,22.59
2018-06-02T07:53:09.105Z,22.59
2018-06-02T07:53:49.621Z,22.49
2018-06-02T07:54:29.958Z,22.42
2018-06-02T07:55:10.384Z,22.39
2018-06-02T07:55:50.808Z,22.45
2018-06-02T07:56:31.255Z,22.46
2018-06-02T07:57:11.682Z,22.42
2018-06-02T07:57:52.052Z,22.44
2018-06-02T07:58:32.923Z,22.38
2018-06-02T07:59:13.457Z,22.38
2018-06-02T07:59:53.996Z,22.41
2018-06-02T08:00:34.416Z,22.29
2018-06-02T08:01:14.843Z,22.31
2018-06-02T08:01:55.271Z,22.35
2018-06-02T08:02:35.633Z,22.29
2018-06-02T08:03:21.745Z,22.41
2018-06-02T08:04:02.225Z,22.39
2018-06-02T08:04:42.573Z,22.44
2018-06-02T08:05:23.027Z,22.35
2018-06-02T08:06:03.437Z,22.33
2018-06-02T08:06:43.854Z,22.38
2018-06-02T08:07:24.326Z,22.31
2018-06-02T08:08:04.830Z,22.33
2018-06-02T08:08:45.375Z,22.35
2018-06-02T08:09:25.680Z,22.36
2018-06-02T08:10:06.104Z,22.38
2018-06-02T08:10:46.544Z,22.38
2018-06-02T08:11:26.922Z,22.35
2018-06-02T08:12:07.350Z,22.36
2018-06-02T08:12:47.860Z,22.36
2018-06-02T08:13:28.250Z,22.39
2018-06-02T08:14:08.703Z,22.42
2018-06-02T08:14:49.114Z,22.42
2018-06-02T08:15:29.651Z,22.49
2018-06-02T08:16:10.131Z,22.56
2018-06-02T08:16:50.447Z,22.63
2018-06-02T08:17:30.978Z,22.59
2018-06-02T08:18:11.357Z,22.76
2018-06-02T08:18:51.758Z,22.75
2018-06-02T08:19:32.332Z,22.88
2018-06-02T08:20:12.763Z,22.89
2018-06-02T08:20:53.260Z,23.07
2018-06-02T08:21:40.393Z,23.16
2018-06-02T08:22:20.815Z,23.34
2018-06-02T08:23:01.298Z,23.42
2018-06-02T08:23:41.690Z,23.57
2018-06-02T08:24:22.083Z,23.77
2018-06-02T08:25:02.504Z,23.87
2018-06-02T08:25:42.976Z,24.08
2018-06-02T08:26:30.302Z,24.11
2018-06-02T08:27:10.697Z,24.15
2018-06-02T08:27:51.122Z,24.11
2018-06-02T08:28:31.399Z,24.18
2018-06-02T08:29:11.887Z,24.18
2018-06-02T08:29:52.292Z,24.21
2018-06-02T08:30:32.792Z,24.27
2018-06-02T08:31:13.084Z,24.27
2018-06-02T08:31:53.515Z,24.26
2018-06-02T08:32:36.828Z,24.34
2018-06-02T08:33:17.149Z,24.31
2018-06-02T08:33:57.595Z,24.42
2018-06-02T08:34:38.062Z,24.41
2018-06-02T08:35:18.423Z,24.39
2018-06-02T08:35:58.860Z,24.39
2018-06-02T08:36:39.795Z,24.44
2018-06-02T08:37:20.157Z,24.42
2018-06-02T08:38:00.468Z,24.42
2018-06-02T08:38:41.075Z,24.41
2018-06-02T08:39:36.294Z,24.34
2018-06-02T08:40:31.229Z,24.52
2018-06-02T08:41:11.543Z,24.53
2018-06-02T08:47:43.852Z,25.67
2018-06-02T08:48:37.156Z,25.86
2018-06-02T08:49:17.619Z,26.16
2018-06-02T08:49:58.069Z,26.2
2018-06-02T08:50:38.500Z,26.41
2018-06-02T08:51:19.069Z,26.61
2018-06-02T08:51:59.378Z,26.66
2018-06-02T08:52:39.911Z,26.71
2018-06-02T08:53:22.538Z,26.66
2018-06-02T08:54:02.338Z,26.66
2018-06-02T08:54:42.773Z,26.6
2018-06-02T08:55:23.210Z,26.71
2018-06-02T08:57:24.712Z,26.93
2018-06-02T08:58:05.536Z,27.08
2018-06-02T08:58:46.130Z,27.15
2018-06-02T08:59:26.784Z,27.2
2018-06-02T09:00:07.843Z,27.33
2018-06-02T09:00:48.306Z,27.53
2018-06-02T09:01:28.723Z,27.53
2018-06-02T09:02:09.244Z,27.72
2018-06-02T09:02:49.889Z,27.83
2018-06-02T09:03:30.226Z,27.87
2018-06-02T09:04:10.753Z,27.83
2018-06-02T09:04:51.127Z,27.68
2018-06-02T09:05:31.813Z,27.61
2018-06-02T09:06:12.247Z,27.53
2018-06-02T09:06:52.710Z,27.45
2018-06-02T09:07:34.180Z,27.48
2018-06-02T09:08:14.548Z,27.43
2018-06-02T09:08:55.075Z,27.48
2018-06-02T09:09:35.442Z,27.55
2018-06-02T09:10:15.917Z,27.58
2018-06-02T09:11:10.868Z,27.77
2018-06-02T09:11:51.268Z,27.84
2018-06-02T09:12:46.497Z,27.93
2018-06-02T09:13:26.951Z,27.93
2018-06-02T09:14:08.481Z,27.91
2018-06-02T09:14:55.778Z,27.93
2018-06-02T09:15:36.375Z,27.93
2018-06-02T09:16:16.709Z,27.91
2018-06-02T09:16:57.181Z,27.87
2018-06-02T09:17:37.704Z,27.8
2018-06-02T09:18:18.198Z,27.77
2018-06-02T09:19:01.660Z,27.63
2018-06-02T09:19:42.865Z,27.62
2018-06-02T09:20:23.361Z,27.62
2018-06-02T09:21:04.069Z,27.53
2018-06-02T09:21:44.891Z,27.59
2018-06-02T09:22:25.342Z,27.52
2018-06-02T09:23:27.113Z,27.61
2018-06-02T09:24:14.749Z,27.72
2018-06-02T09:25:09.861Z,27.84
2018-06-02T09:26:05.171Z,27.88
2018-06-02T09:27:00.337Z,27.81
2018-06-02T09:27:55.771Z,27.86
2018-06-02T09:28:36.030Z,27.98
2018-06-02T09:29:16.655Z,27.88
2018-06-02T09:29:57.036Z,27.91
2018-06-02T09:30:40.286Z,27.88
2018-06-02T09:31:20.732Z,27.96
2018-06-02T09:32:07.851Z,28.05
2018-06-02T09:32:48.410Z,28.08
2018-06-02T09:33:28.851Z,28.23
2018-06-02T09:34:09.331Z,28.18
2018-06-02T09:34:49.776Z,28.32
2018-06-02T09:35:30.241Z,28.42
2018-06-02T09:36:10.534Z,28.48
2018-06-02T09:37:05.721Z,28.6
2018-06-02T09:37:46.160Z,28.51
2018-06-02T09:38:26.564Z,28.58
2018-06-02T09:39:07.671Z,28.5
2018-06-02T09:39:48.176Z,28.54
2018-06-02T09:40:28.660Z,28.51
2018-06-02T09:43:17.200Z,28.38
2018-06-02T09:43:55.927Z,28.23
2018-06-02T09:44:36.285Z,28.3
2018-06-02T09:45:32.125Z,28.33
2018-06-02T09:46:21.590Z,28.28
2018-06-02T09:47:09.112Z,28.39
2018-06-02T09:47:49.420Z,28.43
2018-06-02T09:48:29.948Z,28.36
2018-06-02T09:49:13.326Z,28.27
2018-06-02T09:50:00.477Z,28.17
2018-06-02T09:51:57.077Z,28.09
2018-06-02T09:52:54.914Z,28.08
2018-06-02T09:53:35.015Z,27.95
2018-06-02T09:54:17.282Z,27.84
2018-06-02T09:54:58.938Z,27.88
2018-06-02T09:55:39.336Z,27.84
2018-06-02T09:56:20.692Z,27.84
2018-06-02T09:57:01.220Z,27.72
2018-06-02T09:57:42.707Z,27.66
2018-06-02T09:58:24.770Z,27.63
2018-06-02T09:59:18.207Z,27.55
2018-06-02T10:01:12.105Z,27.27
2018-06-02T10:02:06.486Z,27.4
2018-06-02T10:02:47.577Z,27.58
2018-06-02T10:03:34.927Z,27.62
2018-06-02T10:04:15.294Z,27.61
2018-06-02T10:42:27.988Z,29.02
2018-06-02T10:43:08.447Z,28.85
2018-06-02T10:43:48.933Z,28.7
2018-06-02T10:44:29.297Z,28.6
2018-06-02T10:45:09.729Z,28.46
2018-06-02T10:45:50.156Z,28.38
2018-06-02T10:46:37.498Z,28.25
2018-06-02T10:47:17.942Z,28.03
2018-06-02T10:47:58.391Z,28.05
2018-06-02T10:48:38.731Z,27.91
2018-06-02T10:49:19.233Z,27.84
2018-06-02T10:49:59.715Z,27.68
2018-06-02T10:50:40.114Z,27.66
2018-06-02T10:51:20.610Z,27.42
2018-06-02T10:52:03.775Z,27.34
2018-06-02T10:52:58.979Z,27.39
2018-06-02T10:53:39.330Z,27.34
2018-06-02T10:54:19.789Z,27.52
2018-06-02T10:55:00.191Z,27.55
2018-06-02T10:55:40.599Z,27.62
2018-06-02T10:56:20.983Z,27.71
2018-06-02T10:57:01.485Z,27.8
2018-06-02T10:57:56.562Z,27.98
2018-06-02T10:58:36.965Z,28.2
2018-06-02T10:59:27.265Z,28.33
2018-06-02T11:00:14.673Z,28.74
2018-06-02T11:00:55.078Z,28.97
2018-06-02T11:01:35.476Z,28.97
2018-06-02T11:02:15.909Z,29.29
2018-06-02T11:02:56.296Z,29.51
2018-06-02T11:03:36.685Z,29.66
2018-06-02T11:04:17.195Z,29.76
2018-06-02T11:04:57.553Z,29.79
2018-06-02T11:05:37.999Z,29.81
2018-06-02T11:06:18.431Z,29.89
2018-06-02T11:06:58.847Z,29.97
2018-06-02T11:07:39.255Z,29.84
2018-06-02T11:08:19.629Z,29.79
2018-06-02T11:09:00.033Z,29.84
2018-06-02T11:09:40.456Z,29.81
2018-06-02T11:10:20.864Z,29.89
2018-06-02T11:11:01.271Z,30
2018-06-02T11:11:41.655Z,30.07
2018-06-02T11:12:22.078Z,30.08
2018-06-02T11:13:02.652Z,30.11
2018-06-02T11:13:43.104Z,29.97
2018-06-02T11:14:23.511Z,30.1
2018-06-02T11:15:03.893Z,30.07
2018-06-02T11:15:44.320Z,30.11
2018-06-02T11:16:24.786Z,30.04
2018-06-02T11:17:12.176Z,30.11
2018-06-02T11:17:52.553Z,30.03
2018-06-02T11:18:32.992Z,29.92
2018-06-02T11:19:13.428Z,29.94
2018-06-02T11:19:53.825Z,29.97
2018-06-02T11:20:34.234Z,29.86
2018-06-02T11:21:14.818Z,29.92
2018-06-02T11:21:55.160Z,29.81
2018-06-02T11:22:35.604Z,29.84
2018-06-02T11:23:15.978Z,29.82
2018-06-02T11:23:56.373Z,29.79
2018-06-02T11:24:36.863Z,29.71
2018-06-02T11:25:17.298Z,29.74
2018-06-02T11:25:57.740Z,29.69